sensor_id;sensor_type;location;lat;lon;timestamp;pressure;altitude;pressure_sealevel;temperature;humidity
51687;BME280;37774;52.192;4.584;2023-04-23T00:00:19;100454.03;;;4.55;100.00
51687;BME280;37774;52.192;4.584;2023-04-23T00:03:06;100749.78;;;6.53;100.00
51687;BME280;37774;52.192;4.584;2023-04-23T00:05:56;100700.56;;;6.35;100.00
51687;BME280;37774;52.192;4.584;2023-04-23T00:08:42;100742.88;;;6.54;100.00
51687;BME280;37774;52.192;4.584;2023-04-23T00:11:28;100626.16;;;5.82;100.00
51687;BME280;37774;52.192;4.584;2023-04-23T00:14:15;100673.00;;;6.26;100.00
51687;BME280;37774;52.192;4.584;2023-04-23T00:17:00;100605.53;;;5.82;100.00
51687;BME280;37774;52.192;4.584;2023-04-23T00:19:47;100674.72;;;6.28;100.00
51687;BME280;37774;52.192;4.584;2023-04-23T00:22:32;100712.81;;;6.61;100.00
51687;BME280;37774;52.192;4.584;2023-04-23T00:25:17;100668.69;;;6.29;100.00
51687;BME280;37774;52.192;4.584;2023-04-23T00:28:03;100691.22;;;6.51;100.00
51687;BME280;37774;52.192;4.584;2023-04-23T00:30:50;100651.34;;;6.05;100.00
51687;BME280;37774;52.192;4.584;2023-04-23T00:33:35;100702.31;;;6.34;100.00
51687;BME280;37774;52.192;4.584;2023-04-23T00:36:21;100702.13;;;6.14;100.00
51687;BME280;37774;52.192;4.584;2023-04-23T00:39:06;100699.72;;;6.36;100.00
51687;BME280;37774;52.192;4.584;2023-04-23T00:41:53;100631.56;;;6.09;100.00
51687;BME280;37774;52.192;4.584;2023-04-23T00:44:39;100535.78;;;5.67;100.00
51687;BME280;37774;52.192;4.584;2023-04-23T00:47:28;100552.16;;;5.70;100.00
51687;BME280;37774;52.192;4.584;2023-04-23T00:50:13;100615.34;;;6.24;100.00
51687;BME280;37774;52.192;4.584;2023-04-23T00:52:59;100534.41;;;6.06;100.00
51687;BME280;37774;52.192;4.584;2023-04-23T00:55:44;100624.06;;;6.40;100.00
51687;BME280;37774;52.192;4.584;2023-04-23T00:58:31;100545.72;;;6.33;100.00
51687;BME280;37774;52.192;4.584;2023-04-23T01:01:17;100609.56;;;6.68;100.00
51687;BME280;37774;52.192;4.584;2023-04-23T01:04:05;100546.59;;;6.35;100.00
51687;BME280;37774;52.192;4.584;2023-04-23T01:06:52;100624.22;;;6.76;100.00
51687;BME280;37774;52.192;4.584;2023-04-23T01:09:38;100579.50;;;6.81;100.00
51687;BME280;37774;52.192;4.584;2023-04-23T01:12:24;100548.50;;;6.75;100.00
51687;BME280;37774;52.192;4.584;2023-04-23T01:15:10;100469.78;;;5.91;100.00
51687;BME280;37774;52.192;4.584;2023-04-23T01:17:56;100624.28;;;6.85;100.00
51687;BME280;37774;52.192;4.584;2023-04-23T01:20:44;100494.13;;;6.38;100.00
51687;BME280;37774;52.192;4.584;2023-04-23T01:23:31;100557.16;;;6.91;100.00
51687;BME280;37774;52.192;4.584;2023-04-23T01:26:16;100273.53;;;5.32;100.00
51687;BME280;37774;52.192;4.584;2023-04-23T01:29:03;100424.44;;;6.46;100.00
51687;BME280;37774;52.192;4.584;2023-04-23T01:31:49;100440.00;;;6.70;100.00
51687;BME280;37774;52.192;4.584;2023-04-23T01:34:36;100296.13;;;5.89;100.00
51687;BME280;37774;52.192;4.584;2023-04-23T01:37:22;100439.13;;;6.71;100.00
51687;BME280;37774;52.192;4.584;2023-04-23T01:40:10;100371.13;;;6.69;100.00
51687;BME280;37774;52.192;4.584;2023-04-23T01:42:56;100421.97;;;7.08;100.00
51687;BME280;37774;52.192;4.584;2023-04-23T01:45:42;100330.66;;;6.50;100.00
51687;BME280;37774;52.192;4.584;2023-04-23T01:48:27;100418.50;;;7.20;100.00
51687;BME280;37774;52.192;4.584;2023-04-23T01:51:12;100403.00;;;7.30;100.00
51687;BME280;37774;52.192;4.584;2023-04-23T01:53:58;100405.59;;;7.30;100.00
51687;BME280;37774;52.192;4.584;2023-04-23T01:56:45;100328.94;;;7.03;100.00
51687;BME280;37774;52.192;4.584;2023-04-23T01:59:31;100353.06;;;7.22;100.00
51687;BME280;37774;52.192;4.584;2023-04-23T02:02:16;100358.19;;;7.33;100.00
51687;BME280;37774;52.192;4.584;2023-04-23T02:05:03;100353.88;;;7.35;100.00
51687;BME280;37774;52.192;4.584;2023-04-23T02:07:53;100344.38;;;7.40;100.00
51687;BME280;37774;52.192;4.584;2023-04-23T02:10:39;100246.31;;;6.83;100.00
51687;BME280;37774;52.192;4.584;2023-04-23T02:13:26;100297.06;;;7.24;100.00
51687;BME280;37774;52.192;4.584;2023-04-23T02:16:11;100306.47;;;7.39;100.00
51687;BME280;37774;52.192;4.584;2023-04-23T02:18:57;100159.44;;;6.51;100.00
51687;BME280;37774;52.192;4.584;2023-04-23T02:21:42;100248.00;;;7.12;100.00
51687;BME280;37774;52.192;4.584;2023-04-23T02:24:28;100036.53;;;5.88;100.00
51687;BME280;37774;52.192;4.584;2023-04-23T02:27:13;100059.31;;;7.18;100.00
51687;BME280;37774;52.192;4.584;2023-04-23T02:30:01;100284.94;;;7.42;100.00
51687;BME280;37774;52.192;4.584;2023-04-23T02:32:46;100214.44;;;6.89;100.00
51687;BME280;37774;52.192;4.584;2023-04-23T02:35:31;100297.00;;;7.44;100.00
51687;BME280;37774;52.192;4.584;2023-04-23T02:38:17;100249.69;;;7.11;100.00
51687;BME280;37774;52.192;4.584;2023-04-23T02:41:02;100272.91;;;7.24;100.00
51687;BME280;37774;52.192;4.584;2023-04-23T02:43:48;100197.22;;;6.89;100.00
51687;BME280;37774;52.192;4.584;2023-04-23T02:46:35;100278.06;;;7.35;100.00
51687;BME280;37774;52.192;4.584;2023-04-23T02:49:20;100272.13;;;7.00;100.00
51687;BME280;37774;52.192;4.584;2023-04-23T02:52:06;100237.69;;;6.96;100.00
51687;BME280;37774;52.192;4.584;2023-04-23T02:54:51;100213.59;;;6.80;100.00
51687;BME280;37774;52.192;4.584;2023-04-23T02:57:37;100209.31;;;6.71;100.00
51687;BME280;37774;52.192;4.584;2023-04-23T03:00:22;100266.94;;;7.09;100.00
51687;BME280;37774;52.192;4.584;2023-04-23T03:03:09;100265.22;;;7.13;100.00
51687;BME280;37774;52.192;4.584;2023-04-23T03:05:55;100322.84;;;7.38;100.00
51687;BME280;37774;52.192;4.584;2023-04-23T03:08:40;100301.34;;;7.18;100.00
51687;BME280;37774;52.192;4.584;2023-04-23T03:11:26;100272.03;;;7.34;100.00
51687;BME280;37774;52.192;4.584;2023-04-23T03:14:11;100251.38;;;7.33;100.00
51687;BME280;37774;52.192;4.584;2023-04-23T03:16:56;100185.19;;;6.82;100.00
51687;BME280;37774;52.192;4.584;2023-04-23T03:19:43;100223.00;;;7.14;100.00
51687;BME280;37774;52.192;4.584;2023-04-23T03:22:28;100228.19;;;7.11;100.00
51687;BME280;37774;52.192;4.584;2023-04-23T03:25:14;100238.50;;;7.17;100.00
51687;BME280;37774;52.192;4.584;2023-04-23T03:28:00;100174.03;;;6.69;100.00
51687;BME280;37774;52.192;4.584;2023-04-23T03:30:45;100170.59;;;6.64;100.00
51687;BME280;37774;52.192;4.584;2023-04-23T03:33:31;100174.88;;;6.69;100.00
51687;BME280;37774;52.192;4.584;2023-04-23T03:36:17;100253.16;;;7.09;100.00
51687;BME280;37774;52.192;4.584;2023-04-23T03:39:03;100236.81;;;6.88;100.00
51687;BME280;37774;52.192;4.584;2023-04-23T03:41:48;100223.97;;;6.52;100.00
51687;BME280;37774;52.192;4.584;2023-04-23T03:44:34;100239.44;;;6.57;100.00
51687;BME280;37774;52.192;4.584;2023-04-23T03:47:19;100341.84;;;7.19;100.00
51687;BME280;37774;52.192;4.584;2023-04-23T03:50:06;100216.22;;;6.48;100.00
51687;BME280;37774;52.192;4.584;2023-04-23T03:52:53;100277.31;;;6.84;100.00
51687;BME280;37774;52.192;4.584;2023-04-23T03:55:39;100301.41;;;7.02;100.00
51687;BME280;37774;52.192;4.584;2023-04-23T03:58:24;100251.47;;;6.80;100.00
51687;BME280;37774;52.192;4.584;2023-04-23T04:01:10;100279.00;;;6.95;100.00
51687;BME280;37774;52.192;4.584;2023-04-23T04:03:55;100254.06;;;6.84;100.00
51687;BME280;37774;52.192;4.584;2023-04-23T04:06:40;100219.63;;;6.75;100.00
51687;BME280;37774;52.192;4.584;2023-04-23T04:09:27;100334.91;;;7.45;100.00
51687;BME280;37774;52.192;4.584;2023-04-23T04:12:13;100328.88;;;7.47;100.00
51687;BME280;37774;52.192;4.584;2023-04-23T04:14:59;100220.50;;;6.78;100.00
51687;BME280;37774;52.192;4.584;2023-04-23T04:17:46;100329.72;;;7.50;100.00
51687;BME280;37774;52.192;4.584;2023-04-23T04:20:32;100331.44;;;7.54;100.00
51687;BME280;37774;52.192;4.584;2023-04-23T04:23:17;100260.00;;;7.18;100.00
51687;BME280;37774;52.192;4.584;2023-04-23T04:26:04;100336.56;;;7.64;100.00
51687;BME280;37774;52.192;4.584;2023-04-23T04:28:50;100324.50;;;7.64;100.00
51687;BME280;37774;52.192;4.584;2023-04-23T04:31:36;100205.84;;;6.94;100.00
51687;BME280;37774;52.192;4.584;2023-04-23T04:34:21;100321.03;;;7.68;100.00
51687;BME280;37774;52.192;4.584;2023-04-23T04:37:07;100068.31;;;6.24;100.00
51687;BME280;37774;52.192;4.584;2023-04-23T04:39:53;99942.03;;;5.45;100.00
51687;BME280;37774;52.192;4.584;2023-04-23T04:42:40;99928.28;;;5.38;100.00
51687;BME280;37774;52.192;4.584;2023-04-23T04:45:25;100256.50;;;7.34;100.00
51687;BME280;37774;52.192;4.584;2023-04-23T04:48:11;100190.28;;;7.10;100.00
51687;BME280;37774;52.192;4.584;2023-04-23T04:50:56;100133.59;;;6.60;100.00
51687;BME280;37774;52.192;4.584;2023-04-23T04:53:42;100261.69;;;7.36;100.00
51687;BME280;37774;52.192;4.584;2023-04-23T04:56:27;100206.63;;;7.18;100.00
51687;BME280;37774;52.192;4.584;2023-04-23T04:59:14;100172.19;;;7.08;100.00
51687;BME280;37774;52.192;4.584;2023-04-23T05:02:00;100254.72;;;7.55;100.00
51687;BME280;37774;52.192;4.584;2023-04-23T05:04:45;100302.00;;;7.80;100.00
51687;BME280;37774;52.192;4.584;2023-04-23T05:07:30;100223.75;;;7.41;100.00
51687;BME280;37774;52.192;4.584;2023-04-23T05:10:16;100305.44;;;7.82;100.00
51687;BME280;37774;52.192;4.584;2023-04-23T05:13:02;100176.56;;;6.95;100.00
51687;BME280;37774;52.192;4.584;2023-04-23T05:15:49;100088.09;;;6.22;100.00
51687;BME280;37774;52.192;4.584;2023-04-23T05:18:34;100246.19;;;7.28;100.00
51687;BME280;37774;52.192;4.584;2023-04-23T05:21:20;100339.97;;;7.75;100.00
51687;BME280;37774;52.192;4.584;2023-04-23T05:24:06;100333.97;;;7.70;100.00
51687;BME280;37774;52.192;4.584;2023-04-23T05:26:51;100046.81;;;6.08;100.00
51687;BME280;37774;52.192;4.584;2023-04-23T05:29:39;100191.22;;;6.90;100.00
51687;BME280;37774;52.192;4.584;2023-04-23T05:32:26;100009.88;;;5.67;100.00
51687;BME280;37774;52.192;4.584;2023-04-23T05:35:12;100331.31;;;7.84;100.00
51687;BME280;37774;52.192;4.584;2023-04-23T05:37:57;100345.06;;;7.90;100.00
51687;BME280;37774;52.192;4.584;2023-04-23T05:40:42;100088.97;;;6.01;100.00
51687;BME280;37774;52.192;4.584;2023-04-23T05:43:28;100270.28;;;7.33;100.00
51687;BME280;37774;52.192;4.584;2023-04-23T05:46:13;100330.50;;;7.75;100.00
51687;BME280;37774;52.192;4.584;2023-04-23T05:49:00;100184.28;;;6.97;100.00
51687;BME280;37774;52.192;4.584;2023-04-23T05:51:45;100298.63;;;7.66;100.00
51687;BME280;37774;52.192;4.584;2023-04-23T05:54:31;100314.97;;;7.75;100.00
51687;BME280;37774;52.192;4.584;2023-04-23T05:57:16;100293.44;;;7.72;100.00
51687;BME280;37774;52.192;4.584;2023-04-23T06:00:03;100356.19;;;8.17;100.00
51687;BME280;37774;52.192;4.584;2023-04-23T06:02:49;100324.34;;;8.03;100.00
51687;BME280;37774;52.192;4.584;2023-04-23T06:09:34;99790.50;;;6.24;100.00
51687;BME280;37774;52.192;4.584;2023-04-23T06:12:28;99994.50;;;7.48;100.00
51687;BME280;37774;52.192;4.584;2023-04-23T06:15:16;99790.63;;;5.99;100.00
51687;BME280;37774;52.192;4.584;2023-04-23T06:18:04;99771.72;;;5.99;100.00
51687;BME280;37774;52.192;4.584;2023-04-23T06:20:50;100234.38;;;8.39;100.00
51687;BME280;37774;52.192;4.584;2023-04-23T06:23:38;100021.34;;;7.29;100.00
51687;BME280;37774;52.192;4.584;2023-04-23T06:26:25;99823.25;;;6.13;100.00
51687;BME280;37774;52.192;4.584;2023-04-23T06:29:11;99877.22;;;6.49;100.00
51687;BME280;37774;52.192;4.584;2023-04-23T06:32:00;100271.91;;;8.90;100.00
51687;BME280;37774;52.192;4.584;2023-04-23T06:34:46;100088.34;;;7.57;100.00
51687;BME280;37774;52.192;4.584;2023-04-23T06:37:31;100204.25;;;8.27;100.00
51687;BME280;37774;52.192;4.584;2023-04-23T06:40:17;100366.50;;;9.41;100.00
51687;BME280;37774;52.192;4.584;2023-04-23T06:43:06;100102.88;;;7.75;100.00
51687;BME280;37774;52.192;4.584;2023-04-23T06:45:53;100202.44;;;8.36;100.00
51687;BME280;37774;52.192;4.584;2023-04-23T06:48:41;100129.69;;;7.65;100.00
51687;BME280;37774;52.192;4.584;2023-04-23T06:51:28;100421.78;;;9.46;100.00
51687;BME280;37774;52.192;4.584;2023-04-23T06:54:15;100217.28;;;8.16;100.00
51687;BME280;37774;52.192;4.584;2023-04-23T06:57:03;100112.56;;;7.44;100.00
51687;BME280;37774;52.192;4.584;2023-04-23T07:00:00;100196.91;;;7.67;100.00
51687;BME280;37774;52.192;4.584;2023-04-23T07:02:52;100142.78;;;7.31;100.00
51687;BME280;37774;52.192;4.584;2023-04-23T07:05:37;100479.69;;;9.45;100.00
51687;BME280;37774;52.192;4.584;2023-04-23T07:08:36;100294.84;;;8.32;100.00
51687;BME280;37774;52.192;4.584;2023-04-23T07:11:23;100277.66;;;8.18;100.00
51687;BME280;37774;52.192;4.584;2023-04-23T07:14:12;100493.53;;;9.42;100.00
51687;BME280;37774;52.192;4.584;2023-04-23T07:17:06;100465.28;;;9.11;100.00
51687;BME280;37774;52.192;4.584;2023-04-23T07:19:52;100477.22;;;9.31;100.00
51687;BME280;37774;52.192;4.584;2023-04-23T07:22:42;100468.63;;;9.24;100.00
51687;BME280;37774;52.192;4.584;2023-04-23T07:25:33;100556.63;;;9.49;100.00
51687;BME280;37774;52.192;4.584;2023-04-23T07:28:21;100637.53;;;9.99;100.00
51687;BME280;37774;52.192;4.584;2023-04-23T07:31:07;100789.09;;;10.95;100.00
51687;BME280;37774;52.192;4.584;2023-04-23T07:33:55;100691.97;;;10.07;100.00
51687;BME280;37774;52.192;4.584;2023-04-23T07:36:40;100901.34;;;11.47;100.00
51687;BME280;37774;52.192;4.584;2023-04-23T07:39:26;100848.78;;;11.09;100.00
51687;BME280;37774;52.192;4.584;2023-04-23T07:42:14;100865.34;;;11.00;100.00
51687;BME280;37774;52.192;4.584;2023-04-23T07:45:00;100893.63;;;11.37;100.00
51687;BME280;37774;52.192;4.584;2023-04-23T07:47:46;100924.59;;;11.61;100.00
51687;BME280;37774;52.192;4.584;2023-04-23T07:50:34;100652.94;;;10.22;100.00
51687;BME280;37774;52.192;4.584;2023-04-23T07:53:19;100870.16;;;11.40;100.00
51687;BME280;37774;52.192;4.584;2023-04-23T07:56:05;100708.19;;;10.40;100.00
51687;BME280;37774;52.192;4.584;2023-04-23T07:58:51;100975.28;;;12.10;100.00
51687;BME280;37774;52.192;4.584;2023-04-23T08:01:41;100857.94;;;11.49;100.00
51687;BME280;37774;52.192;4.584;2023-04-23T08:04:29;101065.69;;;12.80;100.00
51687;BME280;37774;52.192;4.584;2023-04-23T08:07:15;101064.00;;;12.74;100.00
51687;BME280;37774;52.192;4.584;2023-04-23T08:10:01;100995.63;;;12.52;100.00
51687;BME280;37774;52.192;4.584;2023-04-23T08:12:49;100943.44;;;12.56;100.00
51687;BME280;37774;52.192;4.584;2023-04-23T08:15:34;100971.25;;;12.56;100.00
51687;BME280;37774;52.192;4.584;2023-04-23T08:18:20;101015.38;;;13.31;100.00
51687;BME280;37774;52.192;4.584;2023-04-23T08:21:05;100948.84;;;13.04;100.00
51687;BME280;37774;52.192;4.584;2023-04-23T08:23:53;100822.31;;;12.24;100.00
51687;BME280;37774;52.192;4.584;2023-04-23T08:26:38;101026.00;;;13.72;100.00
51687;BME280;37774;52.192;4.584;2023-04-23T08:29:24;100866.53;;;12.85;100.00
51687;BME280;37774;52.192;4.584;2023-04-23T08:32:09;100969.88;;;13.48;100.00
51687;BME280;37774;52.192;4.584;2023-04-23T08:34:56;101013.03;;;14.16;100.00
51687;BME280;37774;52.192;4.584;2023-04-23T08:37:41;100964.63;;;13.96;100.00
51687;BME280;37774;52.192;4.584;2023-04-23T08:40:30;100960.59;;;14.24;100.00
51687;BME280;37774;52.192;4.584;2023-04-23T08:43:20;100724.63;;;12.96;100.00
51687;BME280;37774;52.192;4.584;2023-04-23T08:46:17;100873.19;;;13.98;100.00
51687;BME280;37774;52.192;4.584;2023-04-23T08:49:06;100832.28;;;13.97;100.00
51687;BME280;37774;52.192;4.584;2023-04-23T08:51:56;100797.38;;;13.99;100.00
51687;BME280;37774;52.192;4.584;2023-04-23T08:54:48;100916.59;;;15.18;100.00
51687;BME280;37774;52.192;4.584;2023-04-23T08:57:38;100597.69;;;13.37;100.00
51687;BME280;37774;52.192;4.584;2023-04-23T09:00:25;100776.22;;;14.48;100.00
51687;BME280;37774;52.192;4.584;2023-04-23T09:03:10;100788.25;;;14.54;100.00
51687;BME280;37774;52.192;4.584;2023-04-23T09:05:56;100898.59;;;15.06;100.00
51687;BME280;37774;52.192;4.584;2023-04-23T09:08:43;100573.38;;;13.35;100.00
51687;BME280;37774;52.192;4.584;2023-04-23T09:11:34;100618.22;;;13.53;100.00
51687;BME280;37774;52.192;4.584;2023-04-23T09:14:23;100799.22;;;14.70;100.00
51687;BME280;37774;52.192;4.584;2023-04-23T09:17:09;100746.03;;;14.35;100.00
51687;BME280;37774;52.192;4.584;2023-04-23T09:19:55;100706.72;;;14.03;100.00
51687;BME280;37774;52.192;4.584;2023-04-23T09:22:42;100646.53;;;13.70;100.00
51687;BME280;37774;52.192;4.584;2023-04-23T09:25:29;100509.47;;;13.14;100.00
51687;BME280;37774;52.192;4.584;2023-04-23T09:28:15;100651.50;;;13.81;100.00
51687;BME280;37774;52.192;4.584;2023-04-23T09:31:03;100557.53;;;13.44;100.00
51687;BME280;37774;52.192;4.584;2023-04-23T09:33:53;100631.84;;;14.37;100.00
51687;BME280;37774;52.192;4.584;2023-04-23T09:36:45;100384.25;;;13.14;100.00
51687;BME280;37774;52.192;4.584;2023-04-23T09:39:33;100469.72;;;14.07;100.00
51687;BME280;37774;52.192;4.584;2023-04-23T09:42:22;100615.63;;;14.88;100.00
51687;BME280;37774;52.192;4.584;2023-04-23T09:45:11;100395.69;;;13.76;100.00
51687;BME280;37774;52.192;4.584;2023-04-23T09:48:01;100426.25;;;14.64;100.00
51687;BME280;37774;52.192;4.584;2023-04-23T09:50:47;100662.94;;;15.69;100.00
51687;BME280;37774;52.192;4.584;2023-04-23T09:53:39;100278.41;;;13.37;100.00
51687;BME280;37774;52.192;4.584;2023-04-23T09:56:26;100452.53;;;14.89;100.00
51687;BME280;37774;52.192;4.584;2023-04-23T09:59:19;100691.34;;;16.62;100.00
51687;BME280;37774;52.192;4.584;2023-04-23T10:02:06;100700.66;;;16.46;100.00
51687;BME280;37774;52.192;4.584;2023-04-23T10:04:54;100621.88;;;16.49;100.00
51687;BME280;37774;52.192;4.584;2023-04-23T10:07:40;100588.41;;;16.79;100.00
51687;BME280;37774;52.192;4.584;2023-04-23T10:10:26;100596.19;;;16.33;100.00
51687;BME280;37774;52.192;4.584;2023-04-23T10:13:11;100180.00;;;14.26;100.00
51687;BME280;37774;52.192;4.584;2023-04-23T10:15:58;100613.16;;;17.20;100.00
51687;BME280;37774;52.192;4.584;2023-04-23T10:18:46;100577.69;;;16.62;100.00
51687;BME280;37774;52.192;4.584;2023-04-23T10:21:34;100447.28;;;15.43;100.00
51687;BME280;37774;52.192;4.584;2023-04-23T10:24:22;100351.91;;;15.25;100.00
51687;BME280;37774;52.192;4.584;2023-04-23T10:27:12;100499.28;;;16.30;100.00
51687;BME280;37774;52.192;4.584;2023-04-23T10:29:59;100564.41;;;16.67;100.00
51687;BME280;37774;52.192;4.584;2023-04-23T10:32:47;100388.69;;;15.47;100.00
51687;BME280;37774;52.192;4.584;2023-04-23T10:35:33;100572.97;;;16.23;100.00
51687;BME280;37774;52.192;4.584;2023-04-23T10:38:25;100406.47;;;15.63;100.00
51687;BME280;37774;52.192;4.584;2023-04-23T10:41:16;100486.47;;;16.46;100.00
51687;BME280;37774;52.192;4.584;2023-04-23T10:44:05;100117.34;;;13.97;100.00
51687;BME280;37774;52.192;4.584;2023-04-23T10:46:51;100488.97;;;16.02;100.00
51687;BME280;37774;52.192;4.584;2023-04-23T10:49:37;100208.41;;;14.62;100.00
51687;BME280;37774;52.192;4.584;2023-04-23T10:52:23;100269.72;;;14.80;100.00
51687;BME280;37774;52.192;4.584;2023-04-23T10:55:15;100462.78;;;16.00;100.00
51687;BME280;37774;52.192;4.584;2023-04-23T10:58:02;100526.25;;;16.10;100.00
51687;BME280;37774;52.192;4.584;2023-04-23T11:00:48;100435.16;;;15.66;100.00
51687;BME280;37774;52.192;4.584;2023-04-23T11:03:36;100527.63;;;16.44;100.00
51687;BME280;37774;52.192;4.584;2023-04-23T11:06:51;100513.19;;;16.32;100.00
51687;BME280;37774;52.192;4.584;2023-04-23T11:09:42;100270.56;;;14.81;100.00
51687;BME280;37774;52.192;4.584;2023-04-23T11:12:32;100238.47;;;15.01;100.00
51687;BME280;37774;52.192;4.584;2023-04-23T11:15:18;100443.59;;;16.24;100.00
51687;BME280;37774;52.192;4.584;2023-04-23T11:18:04;100334.97;;;15.10;100.00
51687;BME280;37774;52.192;4.584;2023-04-23T11:20:55;100203.38;;;14.56;100.00
51687;BME280;37774;52.192;4.584;2023-04-23T11:23:44;100440.06;;;16.25;100.00
51687;BME280;37774;52.192;4.584;2023-04-23T11:26:31;100233.56;;;14.92;100.00
51687;BME280;37774;52.192;4.584;2023-04-23T11:29:22;100260.50;;;14.95;100.00
51687;BME280;37774;52.192;4.584;2023-04-23T11:32:15;100373.78;;;15.73;100.00
51687;BME280;37774;52.192;4.584;2023-04-23T11:35:01;100390.75;;;15.87;100.00
51687;BME280;37774;52.192;4.584;2023-04-23T11:37:48;100483.13;;;16.65;100.00
51687;BME280;37774;52.192;4.584;2023-04-23T11:40:33;100387.09;;;15.93;100.00
51687;BME280;37774;52.192;4.584;2023-04-23T11:43:19;100450.78;;;16.42;100.00
51687;BME280;37774;52.192;4.584;2023-04-23T11:46:09;100453.75;;;16.79;100.00
51687;BME280;37774;52.192;4.584;2023-04-23T11:48:55;100370.81;;;16.08;100.00
51687;BME280;37774;52.192;4.584;2023-04-23T11:51:41;100451.84;;;16.36;100.00
51687;BME280;37774;52.192;4.584;2023-04-23T11:54:27;100442.19;;;16.61;100.00
51687;BME280;37774;52.192;4.584;2023-04-23T11:57:14;100398.72;;;16.55;100.00
51687;BME280;37774;52.192;4.584;2023-04-23T11:59:59;100400.78;;;16.47;100.00
51687;BME280;37774;52.192;4.584;2023-04-23T12:02:56;100404.09;;;16.95;100.00
51687;BME280;37774;52.192;4.584;2023-04-23T12:05:43;100432.13;;;17.17;100.00
51687;BME280;37774;52.192;4.584;2023-04-23T12:08:31;100376.19;;;16.72;100.00
51687;BME280;37774;52.192;4.584;2023-04-23T12:11:18;100410.66;;;17.48;100.00
51687;BME280;37774;52.192;4.584;2023-04-23T12:14:03;100377.44;;;17.06;100.00
51687;BME280;37774;52.192;4.584;2023-04-23T12:16:49;100416.88;;;17.66;100.00
51687;BME280;37774;52.192;4.584;2023-04-23T12:19:37;100221.66;;;16.45;100.00
51687;BME280;37774;52.192;4.584;2023-04-23T12:22:27;100314.97;;;17.14;100.00
51687;BME280;37774;52.192;4.584;2023-04-23T12:25:12;100412.38;;;17.70;100.00
51687;BME280;37774;52.192;4.584;2023-04-23T12:27:58;100314.59;;;16.80;100.00
51687;BME280;37774;52.192;4.584;2023-04-23T12:30:45;100300.38;;;17.28;100.00
51687;BME280;37774;52.192;4.584;2023-04-23T12:33:31;100319.13;;;16.77;100.00
51687;BME280;37774;52.192;4.584;2023-04-23T12:36:18;100389.59;;;17.08;100.00
51687;BME280;37774;52.192;4.584;2023-04-23T12:39:33;100377.13;;;17.14;100.00
51687;BME280;37774;52.192;4.584;2023-04-23T12:42:19;100323.13;;;16.43;100.00
51687;BME280;37774;52.192;4.584;2023-04-23T12:45:06;100348.25;;;16.48;100.00
51687;BME280;37774;52.192;4.584;2023-04-23T12:47:52;100335.34;;;16.44;100.00
51687;BME280;37774;52.192;4.584;2023-04-23T12:50:38;100391.97;;;16.70;100.00
51687;BME280;37774;52.192;4.584;2023-04-23T12:53:24;100370.75;;;17.19;100.00
51687;BME280;37774;52.192;4.584;2023-04-23T12:56:09;100376.69;;;17.64;100.00
51687;BME280;37774;52.192;4.584;2023-04-23T12:58:55;100284.47;;;17.12;100.00
51687;BME280;37774;52.192;4.584;2023-04-23T13:01:41;100374.84;;;17.66;100.00
51687;BME280;37774;52.192;4.584;2023-04-23T13:04:26;100296.44;;;16.97;100.00
51687;BME280;37774;52.192;4.584;2023-04-23T13:07:12;100276.25;;;16.78;100.00
51687;BME280;37774;52.192;4.584;2023-04-23T13:09:58;100297.34;;;16.32;100.00
51687;BME280;37774;52.192;4.584;2023-04-23T13:12:44;100328.38;;;16.43;100.00
51687;BME280;37774;52.192;4.584;2023-04-23T13:15:29;100139.00;;;14.28;100.00
51687;BME280;37774;52.192;4.584;2023-04-23T13:18:15;100322.53;;;15.42;100.00
51687;BME280;37774;52.192;4.584;2023-04-23T13:21:00;100375.25;;;15.31;100.00
51687;BME280;37774;52.192;4.584;2023-04-23T13:23:46;100389.53;;;14.96;100.00
51687;BME280;37774;52.192;4.584;2023-04-23T13:26:33;100331.66;;;14.23;100.00
51687;BME280;37774;52.192;4.584;2023-04-23T13:29:20;100354.97;;;14.00;100.00
51687;BME280;37774;52.192;4.584;2023-04-23T13:32:05;100241.38;;;13.24;100.00
51687;BME280;37774;52.192;4.584;2023-04-23T13:34:50;100412.81;;;14.48;100.00
51687;BME280;37774;52.192;4.584;2023-04-23T13:37:38;100411.00;;;14.79;100.00
51687;BME280;37774;52.192;4.584;2023-04-23T13:40:24;100345.47;;;14.26;100.00
51687;BME280;37774;52.192;4.584;2023-04-23T13:43:11;100377.63;;;14.30;100.00
51687;BME280;37774;52.192;4.584;2023-04-23T13:45:56;100403.59;;;14.63;100.00
51687;BME280;37774;52.192;4.584;2023-04-23T13:48:44;100376.72;;;14.31;100.00
51687;BME280;37774;52.192;4.584;2023-04-23T13:51:29;100283.78;;;13.94;100.00
51687;BME280;37774;52.192;4.584;2023-04-23T13:54:15;100384.41;;;14.64;100.00
51687;BME280;37774;52.192;4.584;2023-04-23T13:57:01;100412.44;;;14.59;100.00
51687;BME280;37774;52.192;4.584;2023-04-23T13:59:48;100340.97;;;14.03;100.00
51687;BME280;37774;52.192;4.584;2023-04-23T14:02:34;100362.13;;;13.94;100.00
51687;BME280;37774;52.192;4.584;2023-04-23T14:05:19;100390.16;;;14.19;100.00
51687;BME280;37774;52.192;4.584;2023-04-23T14:08:04;100352.53;;;13.94;100.00
51687;BME280;37774;52.192;4.584;2023-04-23T14:10:50;100363.53;;;14.06;100.00
51687;BME280;37774;52.192;4.584;2023-04-23T14:13:38;100443.72;;;14.34;100.00
51687;BME280;37774;52.192;4.584;2023-04-23T14:16:24;100356.06;;;13.62;100.00
51687;BME280;37774;52.192;4.584;2023-04-23T14:19:12;100426.63;;;13.92;100.00
51687;BME280;37774;52.192;4.584;2023-04-23T14:21:58;100461.97;;;14.03;100.00
51687;BME280;37774;52.192;4.584;2023-04-23T14:24:44;100370.28;;;13.51;100.00
51687;BME280;37774;52.192;4.584;2023-04-23T14:27:32;100435.38;;;13.57;100.00
51687;BME280;37774;52.192;4.584;2023-04-23T14:30:19;100451.47;;;13.39;100.00